sensor_id;sensor_type;location;lat;lon;timestamp;pressure;altitude;pressure_sealevel;temperature;humidity
51099;BME280;37146;48.210;16.234;2023-05-16T00:00:48;98373.03;;;10.17;100.00
51099;BME280;37146;48.210;16.234;2023-05-16T00:03:14;98375.91;;;10.14;100.00
51099;BME280;37146;48.210;16.234;2023-05-16T00:05:39;98382.09;;;10.14;100.00
51099;BME280;37146;48.210;16.234;2023-05-16T00:08:04;98378.09;;;10.07;100.00
51099;BME280;37146;48.210;16.234;2023-05-16T00:10:30;98370.75;;;10.11;100.00
51099;BME280;37146;48.210;16.234;2023-05-16T00:12:55;98373.25;;;10.14;100.00
51099;BME280;37146;48.210;16.234;2023-05-16T00:15:21;98368.09;;;10.11;100.00
51099;BME280;37146;48.210;16.234;2023-05-16T00:17:47;98360.63;;;10.16;100.00
51099;BME280;37146;48.210;16.234;2023-05-16T00:20:13;98365.63;;;10.22;100.00
51099;BME280;37146;48.210;16.234;2023-05-16T00:22:41;98368.28;;;10.22;100.00
51099;BME280;37146;48.210;16.234;2023-05-16T00:25:06;98375.66;;;10.18;100.00
51099;BME280;37146;48.210;16.234;2023-05-16T00:27:33;98383.66;;;10.18;100.00
51099;BME280;37146;48.210;16.234;2023-05-16T00:29:58;98377.03;;;10.10;100.00
51099;BME280;37146;48.210;16.234;2023-05-16T00:32:24;98377.72;;;10.13;100.00
51099;BME280;37146;48.210;16.234;2023-05-16T00:34:49;98382.97;;;10.15;100.00
51099;BME280;37146;48.210;16.234;2023-05-16T00:37:15;98364.06;;;10.18;100.00
51099;BME280;37146;48.210;16.234;2023-05-16T00:39:40;98369.59;;;10.15;100.00
51099;BME280;37146;48.210;16.234;2023-05-16T00:42:05;98370.97;;;10.22;100.00
51099;BME280;37146;48.210;16.234;2023-05-16T00:44:30;98359.88;;;10.14;100.00
51099;BME280;37146;48.210;16.234;2023-05-16T00:46:56;98361.78;;;10.26;100.00
51099;BME280;37146;48.210;16.234;2023-05-16T00:49:22;98370.78;;;10.25;100.00
51099;BME280;37146;48.210;16.234;2023-05-16T00:51:47;98362.34;;;10.17;100.00
51099;BME280;37146;48.210;16.234;2023-05-16T00:54:12;98355.09;;;10.19;100.00
51099;BME280;37146;48.210;16.234;2023-05-16T00:56:38;98352.44;;;10.19;100.00
51099;BME280;37146;48.210;16.234;2023-05-16T00:59:03;98354.94;;;10.22;100.00
51099;BME280;37146;48.210;16.234;2023-05-16T01:01:29;98358.16;;;10.27;100.00
51099;BME280;37146;48.210;16.234;2023-05-16T01:03:54;98356.16;;;10.16;100.00
51099;BME280;37146;48.210;16.234;2023-05-16T01:06:20;98355.69;;;10.24;100.00
51099;BME280;37146;48.210;16.234;2023-05-16T01:08:46;98354.25;;;10.18;100.00
51099;BME280;37146;48.210;16.234;2023-05-16T01:11:18;98359.88;;;10.14;100.00
51099;BME280;37146;48.210;16.234;2023-05-16T01:16:32;98349.66;;;10.20;100.00
51099;BME280;37146;48.210;16.234;2023-05-16T01:19:19;98360.84;;;10.13;100.00
51099;BME280;37146;48.210;16.234;2023-05-16T01:21:52;98360.44;;;10.19;100.00
51099;BME280;37146;48.210;16.234;2023-05-16T01:25:10;98357.97;;;10.16;100.00
51099;BME280;37146;48.210;16.234;2023-05-16T01:27:12;98360.34;;;10.06;100.00
51099;BME280;37146;48.210;16.234;2023-05-16T01:29:37;98350.50;;;10.06;100.00
51099;BME280;37146;48.210;16.234;2023-05-16T01:32:03;98352.91;;;10.11;100.00
51099;BME280;37146;48.210;16.234;2023-05-16T01:34:28;98350.31;;;10.10;100.00
51099;BME280;37146;48.210;16.234;2023-05-16T01:37:01;98353.78;;;10.12;100.00
51099;BME280;37146;48.210;16.234;2023-05-16T01:39:32;98358.69;;;10.03;100.00
51099;BME280;37146;48.210;16.234;2023-05-16T01:42:02;98348.13;;;10.02;100.00
51099;BME280;37146;48.210;16.234;2023-05-16T01:47:29;98355.00;;;10.06;100.00
51099;BME280;37146;48.210;16.234;2023-05-16T01:49:57;98346.09;;;10.05;100.00
51099;BME280;37146;48.210;16.234;2023-05-16T01:52:37;98348.28;;;9.99;100.00
51099;BME280;37146;48.210;16.234;2023-05-16T01:55:06;98339.75;;;10.08;100.00
51099;BME280;37146;48.210;16.234;2023-05-16T01:57:34;98332.47;;;10.10;100.00
51099;BME280;37146;48.210;16.234;2023-05-16T02:00:00;98327.41;;;10.05;100.00
51099;BME280;37146;48.210;16.234;2023-05-16T02:02:25;98320.84;;;10.11;100.00
51099;BME280;37146;48.210;16.234;2023-05-16T02:04:50;98325.22;;;10.12;100.00
51099;BME280;37146;48.210;16.234;2023-05-16T02:07:15;98329.72;;;10.12;100.00
51099;BME280;37146;48.210;16.234;2023-05-16T02:09:41;98331.63;;;10.10;100.00
51099;BME280;37146;48.210;16.234;2023-05-16T02:12:06;98351.09;;;10.12;100.00
51099;BME280;37146;48.210;16.234;2023-05-16T02:14:31;98351.88;;;10.14;100.00
51099;BME280;37146;48.210;16.234;2023-05-16T02:16:57;98349.56;;;10.08;100.00
51099;BME280;37146;48.210;16.234;2023-05-16T02:19:22;98353.78;;;10.12;100.00
51099;BME280;37146;48.210;16.234;2023-05-16T02:21:47;98346.72;;;10.11;100.00
51099;BME280;37146;48.210;16.234;2023-05-16T02:24:12;98343.66;;;10.02;100.00
51099;BME280;37146;48.210;16.234;2023-05-16T02:26:38;98337.25;;;10.05;100.00
51099;BME280;37146;48.210;16.234;2023-05-16T02:29:04;98335.41;;;10.05;100.00
51099;BME280;37146;48.210;16.234;2023-05-16T02:31:30;98341.72;;;10.04;100.00
51099;BME280;37146;48.210;16.234;2023-05-16T02:33:56;98346.03;;;10.07;100.00
51099;BME280;37146;48.210;16.234;2023-05-16T02:36:21;98342.75;;;10.02;100.00
51099;BME280;37146;48.210;16.234;2023-05-16T02:38:46;98348.44;;;10.12;100.00
51099;BME280;37146;48.210;16.234;2023-05-16T02:41:11;98344.22;;;10.08;100.00
51099;BME280;37146;48.210;16.234;2023-05-16T02:43:37;98348.50;;;10.10;100.00
51099;BME280;37146;48.210;16.234;2023-05-16T02:46:18;98349.19;;;10.14;100.00
51099;BME280;37146;48.210;16.234;2023-05-16T02:48:43;98339.63;;;10.10;100.00
51099;BME280;37146;48.210;16.234;2023-05-16T02:51:09;98327.81;;;10.14;100.00
51099;BME280;37146;48.210;16.234;2023-05-16T02:53:34;98329.44;;;10.16;100.00
51099;BME280;37146;48.210;16.234;2023-05-16T02:55:59;98326.84;;;10.15;100.00
51099;BME280;37146;48.210;16.234;2023-05-16T02:58:24;98326.75;;;10.02;100.00
51099;BME280;37146;48.210;16.234;2023-05-16T03:00:50;98316.94;;;10.02;100.00
51099;BME280;37146;48.210;16.234;2023-05-16T03:03:15;98311.97;;;10.11;100.00
51099;BME280;37146;48.210;16.234;2023-05-16T03:05:40;98303.94;;;10.11;100.00
51099;BME280;37146;48.210;16.234;2023-05-16T03:08:06;98298.78;;;10.08;100.00
51099;BME280;37146;48.210;16.234;2023-05-16T03:10:31;98298.00;;;10.05;100.00
51099;BME280;37146;48.210;16.234;2023-05-16T03:12:56;98291.72;;;10.06;100.00
51099;BME280;37146;48.210;16.234;2023-05-16T03:15:21;98290.56;;;9.96;100.00
51099;BME280;37146;48.210;16.234;2023-05-16T03:17:47;98280.06;;;9.93;100.00
51099;BME280;37146;48.210;16.234;2023-05-16T03:20:12;98278.75;;;10.00;100.00
51099;BME280;37146;48.210;16.234;2023-05-16T03:22:37;98278.75;;;10.00;100.00
51099;BME280;37146;48.210;16.234;2023-05-16T03:25:04;98279.59;;;10.01;100.00
51099;BME280;37146;48.210;16.234;2023-05-16T03:27:29;98289.16;;;10.05;100.00
51099;BME280;37146;48.210;16.234;2023-05-16T03:29:55;98282.75;;;10.08;100.00
51099;BME280;37146;48.210;16.234;2023-05-16T03:32:20;98282.41;;;10.14;100.00
51099;BME280;37146;48.210;16.234;2023-05-16T03:34:45;98293.81;;;10.16;100.00
51099;BME280;37146;48.210;16.234;2023-05-16T03:37:10;98293.53;;;10.20;100.00
51099;BME280;37146;48.210;16.234;2023-05-16T03:39:38;98292.69;;;10.20;100.00
51099;BME280;37146;48.210;16.234;2023-05-16T03:42:04;98287.84;;;10.27;100.00
51099;BME280;37146;48.210;16.234;2023-05-16T03:44:29;98290.03;;;10.34;100.00
51099;BME280;37146;48.210;16.234;2023-05-16T03:46:55;98296.91;;;10.39;100.00
51099;BME280;37146;48.210;16.234;2023-05-16T03:49:22;98301.31;;;10.40;100.00
51099;BME280;37146;48.210;16.234;2023-05-16T03:51:48;98306.47;;;10.43;100.00
51099;BME280;37146;48.210;16.234;2023-05-16T03:54:13;98317.28;;;10.41;100.00
51099;BME280;37146;48.210;16.234;2023-05-16T03:56:39;98325.75;;;10.62;100.00
51099;BME280;37146;48.210;16.234;2023-05-16T03:59:04;98327.66;;;10.75;100.00
51099;BME280;37146;48.210;16.234;2023-05-16T04:01:29;98320.09;;;10.67;100.00
51099;BME280;37146;48.210;16.234;2023-05-16T04:03:55;98324.25;;;10.58;100.00
51099;BME280;37146;48.210;16.234;2023-05-16T04:06:20;98320.81;;;10.56;100.00
51099;BME280;37146;48.210;16.234;2023-05-16T04:08:45;98303.69;;;10.59;100.00
51099;BME280;37146;48.210;16.234;2023-05-16T04:11:11;98307.78;;;10.64;100.00
51099;BME280;37146;48.210;16.234;2023-05-16T04:13:36;98306.16;;;10.76;100.00
51099;BME280;37146;48.210;16.234;2023-05-16T04:16:01;98301.66;;;10.77;100.00
51099;BME280;37146;48.210;16.234;2023-05-16T04:18:26;98298.88;;;10.78;100.00
51099;BME280;37146;48.210;16.234;2023-05-16T04:20:52;98295.91;;;10.83;100.00
51099;BME280;37146;48.210;16.234;2023-05-16T04:23:17;98296.69;;;10.85;100.00
51099;BME280;37146;48.210;16.234;2023-05-16T04:25:42;98304.22;;;10.78;100.00
51099;BME280;37146;48.210;16.234;2023-05-16T04:28:07;98313.03;;;10.80;100.00
51099;BME280;37146;48.210;16.234;2023-05-16T04:30:33;98315.41;;;10.85;100.00
51099;BME280;37146;48.210;16.234;2023-05-16T04:32:58;98316.34;;;10.84;100.00
51099;BME280;37146;48.210;16.234;2023-05-16T04:35:24;98322.28;;;10.89;100.00
51099;BME280;37146;48.210;16.234;2023-05-16T04:37:49;98324.00;;;10.90;100.00
51099;BME280;37146;48.210;16.234;2023-05-16T04:40:15;98328.19;;;10.94;100.00
51099;BME280;37146;48.210;16.234;2023-05-16T04:42:41;98329.59;;;11.00;100.00
51099;BME280;37146;48.210;16.234;2023-05-16T04:45:07;98336.38;;;11.06;100.00
51099;BME280;37146;48.210;16.234;2023-05-16T04:47:34;98348.25;;;11.02;100.00
51099;BME280;37146;48.210;16.234;2023-05-16T04:50:00;98350.81;;;11.03;100.00
51099;BME280;37146;48.210;16.234;2023-05-16T04:52:26;98364.88;;;11.07;100.00
51099;BME280;37146;48.210;16.234;2023-05-16T04:54:51;98364.09;;;11.05;100.00
51099;BME280;37146;48.210;16.234;2023-05-16T04:57:16;98374.44;;;11.11;100.00
51099;BME280;37146;48.210;16.234;2023-05-16T04:59:41;98367.91;;;11.15;100.00
51099;BME280;37146;48.210;16.234;2023-05-16T05:02:07;98368.47;;;11.20;100.00
51099;BME280;37146;48.210;16.234;2023-05-16T05:04:32;98367.41;;;11.23;100.00
51099;BME280;37146;48.210;16.234;2023-05-16T05:06:57;98366.34;;;11.25;100.00
51099;BME280;37146;48.210;16.234;2023-05-16T05:09:22;98357.81;;;11.33;100.00
51099;BME280;37146;48.210;16.234;2023-05-16T05:11:48;98346.91;;;11.36;100.00
51099;BME280;37146;48.210;16.234;2023-05-16T05:14:13;98343.94;;;11.41;100.00
51099;BME280;37146;48.210;16.234;2023-05-16T05:16:38;98329.16;;;11.48;100.00
51099;BME280;37146;48.210;16.234;2023-05-16T05:19:04;98330.28;;;11.58;100.00
51099;BME280;37146;48.210;16.234;2023-05-16T05:21:29;98333.50;;;11.64;100.00
51099;BME280;37146;48.210;16.234;2023-05-16T05:23:54;98350.78;;;11.72;100.00
51099;BME280;37146;48.210;16.234;2023-05-16T05:26:20;98362.59;;;11.83;100.00
51099;BME280;37146;48.210;16.234;2023-05-16T05:28:46;98371.75;;;11.93;100.00
51099;BME280;37146;48.210;16.234;2023-05-16T05:31:11;98371.63;;;11.95;100.00
51099;BME280;37146;48.210;16.234;2023-05-16T05:33:36;98369.22;;;12.04;100.00
51099;BME280;37146;48.210;16.234;2023-05-16T05:36:01;98364.38;;;12.10;100.00
51099;BME280;37146;48.210;16.234;2023-05-16T05:38:27;98360.44;;;12.15;100.00
51099;BME280;37146;48.210;16.234;2023-05-16T05:40:52;98360.66;;;12.12;100.00
51099;BME280;37146;48.210;16.234;2023-05-16T05:43:17;98370.19;;;12.16;100.00
51099;BME280;37146;48.210;16.234;2023-05-16T05:45:43;98373.44;;;12.21;100.00
51099;BME280;37146;48.210;16.234;2023-05-16T05:48:08;98374.50;;;12.32;100.00
51099;BME280;37146;48.210;16.234;2023-05-16T05:50:34;98367.00;;;12.37;100.00
51099;BME280;37146;48.210;16.234;2023-05-16T05:53:00;98366.22;;;12.35;100.00
51099;BME280;37146;48.210;16.234;2023-05-16T05:55:25;98358.53;;;12.43;100.00
51099;BME280;37146;48.210;16.234;2023-05-16T05:57:50;98362.09;;;12.57;100.00
51099;BME280;37146;48.210;16.234;2023-05-16T06:00:16;98372.88;;;12.68;100.00
51099;BME280;37146;48.210;16.234;2023-05-16T06:02:41;98364.44;;;12.61;100.00
51099;BME280;37146;48.210;16.234;2023-05-16T06:05:06;98352.63;;;12.64;100.00
51099;BME280;37146;48.210;16.234;2023-05-16T06:07:32;98352.72;;;12.75;100.00
51099;BME280;37146;48.210;16.234;2023-05-16T06:09:57;98350.13;;;12.74;100.00
51099;BME280;37146;48.210;16.234;2023-05-16T06:12:23;98346.50;;;12.62;100.00
51099;BME280;37146;48.210;16.234;2023-05-16T06:14:48;98353.88;;;12.71;100.00
51099;BME280;37146;48.210;16.234;2023-05-16T06:17:13;98350.16;;;12.61;100.00
51099;BME280;37146;48.210;16.234;2023-05-16T06:19:39;98340.69;;;12.68;100.00
51099;BME280;37146;48.210;16.234;2023-05-16T06:22:04;98334.72;;;12.51;100.00
51099;BME280;37146;48.210;16.234;2023-05-16T06:24:29;98332.97;;;12.63;100.00
51099;BME280;37146;48.210;16.234;2023-05-16T06:26:55;98335.56;;;12.65;100.00
51099;BME280;37146;48.210;16.234;2023-05-16T06:29:20;98337.69;;;12.60;100.00
51099;BME280;37146;48.210;16.234;2023-05-16T06:31:45;98343.38;;;12.68;100.00
51099;BME280;37146;48.210;16.234;2023-05-16T06:34:13;98343.28;;;12.70;100.00
51099;BME280;37146;48.210;16.234;2023-05-16T06:36:39;98349.28;;;12.73;100.00
51099;BME280;37146;48.210;16.234;2023-05-16T06:39:04;98347.88;;;12.80;100.00
51099;BME280;37146;48.210;16.234;2023-05-16T06:41:29;98334.44;;;12.80;100.00
51099;BME280;37146;48.210;16.234;2023-05-16T06:43:55;98332.72;;;12.79;100.00
51099;BME280;37146;48.210;16.234;2023-05-16T06:46:20;98337.88;;;12.82;100.00
51099;BME280;37146;48.210;16.234;2023-05-16T06:48:46;98343.16;;;12.84;100.00
51099;BME280;37146;48.210;16.234;2023-05-16T06:51:11;98350.53;;;12.80;100.00
51099;BME280;37146;48.210;16.234;2023-05-16T06:53:36;98345.19;;;12.93;100.00
51099;BME280;37146;48.210;16.234;2023-05-16T06:56:01;98349.91;;;12.90;100.00
51099;BME280;37146;48.210;16.234;2023-05-16T06:58:27;98344.22;;;12.94;100.00
51099;BME280;37146;48.210;16.234;2023-05-16T07:00:52;98337.00;;;12.95;100.00
51099;BME280;37146;48.210;16.234;2023-05-16T07:03:17;98335.81;;;12.99;100.00
51099;BME280;37146;48.210;16.234;2023-05-16T07:05:42;98336.72;;;12.87;100.00
51099;BME280;37146;48.210;16.234;2023-05-16T07:08:08;98346.91;;;12.81;100.00
51099;BME280;37146;48.210;16.234;2023-05-16T07:10:36;98336.06;;;12.83;100.00
51099;BME280;37146;48.210;16.234;2023-05-16T07:13:02;98344.75;;;12.74;100.00
51099;BME280;37146;48.210;16.234;2023-05-16T07:15:28;98349.50;;;12.83;100.00
51099;BME280;37146;48.210;16.234;2023-05-16T07:17:54;98340.88;;;12.91;100.00
51099;BME280;37146;48.210;16.234;2023-05-16T07:20:19;98351.75;;;12.76;100.00
51099;BME280;37146;48.210;16.234;2023-05-16T07:22:44;98355.50;;;12.74;100.00
51099;BME280;37146;48.210;16.234;2023-05-16T07:25:10;98358.59;;;12.80;100.00
51099;BME280;37146;48.210;16.234;2023-05-16T07:27:37;98358.09;;;12.75;100.00
51099;BME280;37146;48.210;16.234;2023-05-16T07:30:05;98358.28;;;12.72;100.00
51099;BME280;37146;48.210;16.234;2023-05-16T07:32:30;98358.28;;;12.72;100.00
51099;BME280;37146;48.210;16.234;2023-05-16T07:34:55;98364.84;;;12.68;100.00
51099;BME280;37146;48.210;16.234;2023-05-16T07:37:21;98370.44;;;12.65;100.00
51099;BME280;37146;48.210;16.234;2023-05-16T07:39:46;98379.03;;;12.57;100.00
51099;BME280;37146;48.210;16.234;2023-05-16T07:42:12;98373.66;;;12.57;100.00
51099;BME280;37146;48.210;16.234;2023-05-16T07:44:37;98382.53;;;12.58;100.00
51099;BME280;37146;48.210;16.234;2023-05-16T07:47:02;98387.69;;;12.61;100.00
51099;BME280;37146;48.210;16.234;2023-05-16T07:49:27;98382.66;;;12.56;100.00
51099;BME280;37146;48.210;16.234;2023-05-16T07:51:53;98384.06;;;12.49;100.00
51099;BME280;37146;48.210;16.234;2023-05-16T07:54:18;98391.25;;;12.48;100.00
51099;BME280;37146;48.210;16.234;2023-05-16T07:56:43;98403.91;;;12.46;100.00
51099;BME280;37146;48.210;16.234;2023-05-16T07:59:08;98411.41;;;12.41;100.00
51099;BME280;37146;48.210;16.234;2023-05-16T08:01:34;98415.59;;;12.32;100.00
51099;BME280;37146;48.210;16.234;2023-05-16T08:03:59;98415.50;;;12.34;100.00
51099;BME280;37146;48.210;16.234;2023-05-16T08:06:24;98416.66;;;12.30;100.00
51099;BME280;37146;48.210;16.234;2023-05-16T08:08:50;98420.28;;;12.29;100.00
51099;BME280;37146;48.210;16.234;2023-05-16T08:11:15;98417.72;;;12.27;100.00
51099;BME280;37146;48.210;16.234;2023-05-16T08:13:40;98425.03;;;12.25;100.00
51099;BME280;37146;48.210;16.234;2023-05-16T08:16:05;98428.66;;;12.24;100.00
51099;BME280;37146;48.210;16.234;2023-05-16T08:18:31;98435.03;;;12.09;100.00
51099;BME280;37146;48.210;16.234;2023-05-16T08:20:56;98444.03;;;12.07;100.00
51099;BME280;37146;48.210;16.234;2023-05-16T08:23:21;98451.91;;;11.96;100.00
51099;BME280;37146;48.210;16.234;2023-05-16T08:25:47;98457.09;;;11.99;100.00
51099;BME280;37146;48.210;16.234;2023-05-16T08:28:12;98456.63;;;11.93;100.00
51099;BME280;37146;48.210;16.234;2023-05-16T08:30:37;98464.78;;;11.91;100.00
51099;BME280;37146;48.210;16.234;2023-05-16T08:33:02;98466.09;;;11.98;100.00
51099;BME280;37146;48.210;16.234;2023-05-16T08:35:29;98461.19;;;12.05;100.00
51099;BME280;37146;48.210;16.234;2023-05-16T08:37:54;98457.50;;;11.93;100.00
51099;BME280;37146;48.210;16.234;2023-05-16T08:40:20;98456.44;;;11.96;100.00
51099;BME280;37146;48.210;16.234;2023-05-16T08:42:46;98460.25;;;11.91;100.00
51099;BME280;37146;48.210;16.234;2023-05-16T08:45:12;98461.97;;;11.93;100.00
51099;BME280;37146;48.210;16.234;2023-05-16T08:47:38;98465.84;;;11.88;100.00
51099;BME280;37146;48.210;16.234;2023-05-16T08:50:05;98461.31;;;11.89;100.00
51099;BME280;37146;48.210;16.234;2023-05-16T08:52:33;98454.66;;;11.82;100.00
51099;BME280;37146;48.210;16.234;2023-05-16T08:55:01;98457.03;;;11.86;100.00
51099;BME280;37146;48.210;16.234;2023-05-16T08:57:29;98455.88;;;11.90;100.00
51099;BME280;37146;48.210;16.234;2023-05-16T08:59:55;98445.66;;;11.83;100.00
51099;BME280;37146;48.210;16.234;2023-05-16T09:02:21;98447.59;;;11.81;100.00
51099;BME280;37146;48.210;16.234;2023-05-16T09:04:46;98440.31;;;11.83;100.00
51099;BME280;37146;48.210;16.234;2023-05-16T09:07:12;98437.00;;;11.92;100.00
51099;BME280;37146;48.210;16.234;2023-05-16T09:09:38;98428.22;;;11.90;100.00
51099;BME280;37146;48.210;16.234;2023-05-16T09:12:03;98419.63;;;11.85;100.00
51099;BME280;37146;48.210;16.234;2023-05-16T09:14:28;98415.78;;;11.89;100.00
51099;BME280;37146;48.210;16.234;2023-05-16T09:17:06;98419.91;;;11.80;100.00
51099;BME280;37146;48.210;16.234;2023-05-16T09:19:36;98414.94;;;11.88;100.00
51099;BME280;37146;48.210;16.234;2023-05-16T09:22:02;98409.88;;;11.84;100.00
51099;BME280;37146;48.210;16.234;2023-05-16T09:24:27;98400.19;;;11.81;100.00
51099;BME280;37146;48.210;16.234;2023-05-16T09:26:53;98400.44;;;11.78;100.00
51099;BME280;37146;48.210;16.234;2023-05-16T09:29:18;98396.03;;;11.77;100.00
51099;BME280;37146;48.210;16.234;2023-05-16T09:31:44;98403.63;;;11.70;100.00
51099;BME280;37146;48.210;16.234;2023-05-16T09:34:09;98394.31;;;11.76;100.00
51099;BME280;37146;48.210;16.234;2023-05-16T09:36:37;98392.69;;;11.73;100.00
51099;BME280;37146;48.210;16.234;2023-05-16T09:39:04;98385.16;;;11.66;100.00
51099;BME280;37146;48.210;16.234;2023-05-16T09:41:33;98386.66;;;11.70;100.00
51099;BME280;37146;48.210;16.234;2023-05-16T09:43:59;98387.72;;;11.67;100.00
51099;BME280;37146;48.210;16.234;2023-05-16T09:46:27;98372.72;;;11.65;100.00
51099;BME280;37146;48.210;16.234;2023-05-16T09:48:52;98371.47;;;11.70;100.00
51099;BME280;37146;48.210;16.234;2023-05-16T09:51:20;98369.63;;;11.71;100.00
51099;BME280;37146;48.210;16.234;2023-05-16T09:53:45;98375.25;;;11.53;100.00
51099;BME280;37146;48.210;16.234;2023-05-16T09:56:12;98381.06;;;11.60;100.00
51099;BME280;37146;48.210;16.234;2023-05-16T09:58:39;98380.31;;;11.58;100.00
51099;BME280;37146;48.210;16.234;2023-05-16T10:01:04;98389.59;;;11.52;100.00
51099;BME280;37146;48.210;16.234;2023-05-16T10:03:32;98391.13;;;11.56;100.00
51099;BME280;37146;48.210;16.234;2023-05-16T10:05:57;98395.38;;;11.46;100.00
51099;BME280;37146;48.210;16.234;2023-05-16T10:08:24;98394.03;;;11.39;100.00
51099;BME280;37146;48.210;16.234;2023-05-16T10:10:51;98394.50;;;11.45;100.00
51099;BME280;37146;48.210;16.234;2023-05-16T10:13:18;98405.47;;;11.55;100.00
51099;BME280;37146;48.210;16.234;2023-05-16T10:15:44;98414.00;;;11.48;100.00
51099;BME280;37146;48.210;16.234;2023-05-16T10:18:11;98419.25;;;11.49;100.00
51099;BME280;37146;48.210;16.234;2023-05-16T10:20:41;98420.50;;;11.43;100.00
51099;BME280;37146;48.210;16.234;2023-05-16T10:23:08;98433.88;;;11.58;100.00
51099;BME280;37146;48.210;16.234;2023-05-16T10:25:38;98435.81;;;11.41;100.00
51099;BME280;37146;48.210;16.234;2023-05-16T10:28:05;98432.66;;;11.49;100.00
51099;BME280;37146;48.210;16.234;2023-05-16T10:30:32;98432.47;;;11.52;100.00
51099;BME280;37146;48.210;16.234;2023-05-16T10:32:57;98433.06;;;11.43;100.00
51099;BME280;37146;48.210;16.234;2023-05-16T10:35:23;98424.84;;;11.46;100.00
51099;BME280;37146;48.210;16.234;2023-05-16T10:37:48;98431.16;;;11.45;100.00
51099;BME280;37146;48.210;16.234;2023-05-16T10:40:14;98433.91;;;11.43;100.00
51099;BME280;37146;48.210;16.234;2023-05-16T10:42:43;98432.69;;;11.35;100.00
51099;BME280;37146;48.210;16.234;2023-05-16T10:45:14;98438.06;;;11.35;100.00
51099;BME280;37146;48.210;16.234;2023-05-16T10:47:43;98443.00;;;11.41;100.00
51099;BME280;37146;48.210;16.234;2023-05-16T10:50:19;98446.16;;;11.48;100.00
51099;BME280;37146;48.210;16.234;2023-05-16T10:52:54;98439.91;;;11.47;100.00
51099;BME280;37146;48.210;16.234;2023-05-16T10:55:19;98425.66;;;11.61;100.00
51099;BME280;37146;48.210;16.234;2023-05-16T10:57:45;98423.06;;;11.59;100.00
51099;BME280;37146;48.210;16.234;2023-05-16T11:00:13;98429.06;;;11.63;100.00
51099;BME280;37146;48.210;16.234;2023-05-16T11:02:45;98437.97;;;11.64;100.00
51099;BME280;37146;48.210;16.234;2023-05-16T11:05:12;98442.91;;;11.70;100.00
51099;BME280;37146;48.210;16.234;2023-05-16T11:07:37;98432.41;;;11.39;100.00
51099;BME280;37146;48.210;16.234;2023-05-16T11:10:07;98437.63;;;11.55;100.00
51099;BME280;37146;48.210;16.234;2023-05-16T11:12:47;98435.75;;;11.43;100.00
51099;BME280;37146;48.210;16.234;2023-05-16T11:15:20;98422.66;;;11.66;100.00
51099;BME280;37146;48.210;16.234;2023-05-16T11:17:45;98425.84;;;11.58;100.00
51099;BME280;37146;48.210;16.234;2023-05-16T11:20:23;98426.00;;;11.69;100.00
51099;BME280;37146;48.210;16.234;2023-05-16T11:22:49;98434.50;;;11.76;100.00
51099;BME280;37146;48.210;16.234;2023-05-16T11:25:14;98414.22;;;11.72;100.00
51099;BME280;37146;48.210;16.234;2023-05-16T11:27:43;98401.91;;;11.82;100.00
51099;BME280;37146;48.210;16.234;2023-05-16T11:32:34;98397.91;;;11.89;100.00
51099;BME280;37146;48.210;16.234;2023-05-16T11:35:00;98387.19;;;11.89;100.00
51099;BME280;37146;48.210;16.234;2023-05-16T11:37:29;98398.06;;;11.73;100.00
51099;BME280;37146;48.210;16.234;2023-05-16T11:40:00;98402.69;;;11.84;100.00
51099;BME280;37146;48.210;16.234;2023-05-16T11:42:33;98406.47;;;11.95;100.00
51099;BME280;37146;48.210;16.234;2023-05-16T11:45:02;98393.69;;;11.85;100.00
51099;BME280;37146;48.210;16.234;2023-05-16T11:47:28;98396.56;;;11.82;100.00
51099;BME280;37146;48.210;16.234;2023-05-16T11:49:56;98390.25;;;11.83;100.00
51099;BME280;37146;48.210;16.234;2023-05-16T11:52:21;98394.97;;;11.80;100.00
51099;BME280;37146;48.210;16.234;2023-05-16T11:54:47;98406.94;;;11.74;100.00
51099;BME280;37146;48.210;16.234;2023-05-16T11:57:12;98391.31;;;11.81;100.00
51099;BME280;37146;48.210;16.234;2023-05-16T11:59:37;98388.63;;;11.81;100.00
51099;BME280;37146;48.210;16.234;2023-05-16T12:02:03;98378.78;;;11.81;100.00
51099;BME280;37146;48.210;16.234;2023-05-16T12:04:29;98373.41;;;11.81;100.00
51099;BME280;37146;48.210;16.234;2023-05-16T12:06:59;98379.38;;;11.72;100.00
51099;BME280;37146;48.210;16.234;2023-05-16T12:09:25;98389.84;;;11.89;100.00
51099;BME280;37146;48.210;16.234;2023-05-16T12:11:50;98385.44;;;11.88;100.00
51099;BME280;37146;48.210;16.234;2023-05-16T12:14:16;98375.06;;;11.97;100.00
51099;BME280;37146;48.210;16.234;2023-05-16T12:16:41;98380.84;;;11.90;100.00
51099;BME280;37146;48.210;16.234;2023-05-16T12:19:07;98369.06;;;11.93;100.00
51099;BME280;37146;48.210;16.234;2023-05-16T12:21:33;98360.31;;;12.04;100.00
51099;BME280;37146;48.210;16.234;2023-05-16T12:23:58;98359.34;;;12.05;100.00
51099;BME280;37146;48.210;16.234;2023-05-16T12:26:25;98351.88;;;12.10;100.00
51099;BME280;37146;48.210;16.234;2023-05-16T12:28:53;98356.78;;;12.16;100.00
51099;BME280;37146;48.210;16.234;2023-05-16T12:31:21;98355.50;;;12.09;100.00
51099;BME280;37146;48.210;16.234;2023-05-16T12:33:47;98348.81;;;12.02;100.00
51099;BME280;37146;48.210;16.234;2023-05-16T12:36:12;98351.00;;;12.10;100.00
51099;BME280;37146;48.210;16.234;2023-05-16T12:38:39;98341.91;;;12.12;100.00
51099;BME280;37146;48.210;16.234;2023-05-16T12:41:04;98339.63;;;12.06;100.00
51099;BME280;37146;48.210;16.234;2023-05-16T12:43:29;98326.88;;;12.10;100.00